Home   Weather   Spain   Sevilla   Past weeks
Flag for Spain

Past Weather in Sevilla, Seville, Spain — May 2019

Currently: 68 °F. Sunny. (Weather station: Sevilla / San Pablo, Spain). See more current weather

May 2019 Weather in Sevilla — Graph

°F

High & Low Weather Summary for May 2019

 TemperatureHumidityPressure
High97 °F (May 13, 5:00 pm)100% (May 10, 7:00 am)30.12 "Hg (May 10, 7:00 am)
Low55 °F (May 7, 6:30 am)10% (May 13, 4:30 pm)29.74 "Hg (May 1, 6:30 pm)
Average74 °F51%29.95 "Hg
* Reported May 1 12:00 am — May 31 11:30 pm, Sevilla. Weather by CustomWeather, © 2024

Note: Actual official high and low records may vary slightly from our data, if they occured in-between our weather recording intervals... More about our weather records

Sevilla Weather History for May 1, 2019

Scroll right to see more
 ConditionsComfort  
Time TempWeatherWind HumidityBarometerVisibility
12:00 am
Wed, May 1
70 °FPassing clouds.7 mph57%29.89 "HgN/A
12:30 am70 °FPassing clouds.8 mph57%29.89 "HgN/A
1:00 am70 °FPassing clouds.8 mph53%29.89 "HgN/A
1:30 am68 °FMild.8 mph56%29.89 "HgN/A
2:00 am66 °FMild.9 mph60%29.89 "HgN/A
2:30 am66 °FMild.10 mph64%29.89 "HgN/A
3:00 am64 °FMild.7 mph73%29.89 "HgN/A
3:30 am63 °FPassing clouds.3 mph77%29.86 "HgN/A
4:00 am63 °FClear.1 mph77%29.86 "Hg10 mi
4:30 am63 °FClear.No wind83%29.86 "Hg10 mi
5:00 am63 °FClear.No wind77%29.86 "Hg10 mi
5:30 am61 °FClear.2 mph83%29.86 "Hg10 mi
6:00 am59 °FClear.3 mph88%29.86 "Hg10 mi
6:30 am59 °FClear.5 mph88%29.86 "Hg10 mi
7:00 am59 °FClear.3 mph88%29.86 "Hg10 mi
7:30 am61 °FSunny.1 mph83%29.86 "Hg10 mi
8:00 am61 °FSunny.No wind83%29.86 "Hg10 mi
8:30 am61 °FSunny.No wind88%29.86 "Hg10 mi
9:30 am66 °FSunny.No wind73%29.89 "Hg10 mi
10:00 am70 °FSunny.1 mph60%29.89 "Hg10 mi
10:30 am72 °FSunny.2 mph61%29.89 "Hg10 mi
11:00 am73 °FSunny.2 mph57%29.89 "Hg10 mi
11:30 am77 °FPassing clouds.3 mph44%29.89 "HgN/A
12:00 pm77 °FPassing clouds.3 mph44%29.86 "HgN/A
12:30 pm79 °FPassing clouds.6 mph42%29.86 "HgN/A
1:00 pm81 °FPassing clouds.6 mph39%29.86 "HgN/A
1:30 pm82 °FSunny.3 mph40%29.86 "Hg10 mi
2:00 pm84 °FPassing clouds.5 mph31%29.83 "HgN/A
2:30 pm86 °FSunny.3 mph31%29.83 "Hg10 mi
3:00 pm86 °FPassing clouds.8 mph27%29.83 "HgN/A
3:30 pm88 °FPassing clouds.9 mph25%29.80 "HgN/A
4:00 pm88 °FPassing clouds.7 mph21%29.80 "HgN/A
4:30 pm88 °FPassing clouds.8 mph18%29.80 "HgN/A
5:00 pm88 °FPassing clouds.8 mph21%29.77 "HgN/A
5:30 pm88 °FPassing clouds.9 mph21%29.77 "HgN/A
6:00 pm88 °FPassing clouds.8 mph21%29.77 "HgN/A
6:30 pm88 °FPassing clouds.8 mph18%29.74 "HgN/A
7:00 pm88 °FPassing clouds.3 mph18%29.74 "HgN/A
7:30 pm91 °FSunny.No wind17%29.74 "Hg10 mi
8:00 pm82 °FPassing clouds.10 mph42%29.74 "HgN/A
8:30 pm81 °FPassing clouds.12 mph42%29.77 "HgN/A
9:00 pm77 °FSunny.9 mph47%29.77 "Hg10 mi
9:30 pm77 °FClear.12 mph51%29.77 "Hg10 mi
10:00 pm73 °FClear.9 mph57%29.77 "Hg10 mi
10:30 pm75 °FClear.8 mph54%29.80 "Hg10 mi
11:00 pm70 °FPassing clouds.3 mph64%29.80 "HgN/A
11:30 pm72 °FClear.8 mph61%29.80 "Hg10 mi
Weather by CustomWeather, © 2024

See weather overview